Main page
METAR-TAF:

METAR-TAF

Airports :

Gran Canaria, Spain

Gran Canaria Airport

latitude: 27-56N, longitude: 015-23W, elevation: 23 m

Current weather observation

The report was made 32 minutes ago, at 11:30 UTC
Wind 16 kt from the North/Northeast
Temperature 26°C
Humidity 74%
Pressure 1022 hPa
Visibility 10 km or more
Few clouds at a height of 2000 ft
Scattered clouds at a height of 4000 ft

METAR: GCLP 221130Z 03016KT 9999 FEW020 SCT040 26/21 Q1022 NOSIG

Time: 13:02 (12:02 UTC)

Forecast

The report was made 4 hours and 2 minutes ago, at 08:00 UTC
Forecast valid from 22 at 09 UTC to 23 at 09 UTC
Wind 17 kt from the North/Northeast
Visibility 10 km or more
Broken clouds at a height of 3000 ft
Probability 40% :
Temporary
from 22 at 09 UTC to 22 at 14 UTC
drizzle

TAF: GCLP 220800Z 2209/2309 03017KT 9999 BKN030 TX26/2213Z TN21/2306Z PROB40 TEMPO 2209/2214 DZ

Weather observations and forecasts of more than 4000 airports (METAR and TAF reports).

The available stations are represented by yellow and red dots on the map.

Hover mouse over dot to see the name of the station.

Then click to see weather observations and forecasts.

To change the map : click on the green buttons with a black cross to zoom in, on the green button with a dash to zoom out, or on the green arrows for adjacent maps.


METAR-TAF: